createdAt,value
2019-04-28T00:00:26.454Z,455
2019-04-28T00:02:28.870Z,455
2019-04-28T00:04:30.997Z,456
2019-04-28T00:06:33.350Z,455
2019-04-28T00:08:35.531Z,456
2019-04-28T00:10:37.855Z,455
2019-04-28T00:12:40.118Z,455
2019-04-28T00:14:42.351Z,456
2019-04-28T00:16:44.598Z,455
2019-04-28T00:18:46.861Z,455
2019-04-28T00:20:49.216Z,455
2019-04-28T00:22:51.653Z,456
2019-04-28T00:24:53.635Z,456
2019-04-28T00:26:56.063Z,455
2019-04-28T00:28:58.482Z,455
2019-04-28T00:31:00.400Z,455
2019-04-28T00:33:02.753Z,455
2019-04-28T00:35:04.917Z,455
2019-04-28T00:37:07.172Z,455
2019-04-28T00:39:09.430Z,456
2019-04-28T00:41:11.673Z,456
2019-04-28T00:43:13.915Z,455
2019-04-28T00:45:16.169Z,456
2019-04-28T00:47:18.466Z,455
2019-04-28T00:49:22.085Z,455
2019-04-28T00:51:22.994Z,455
2019-04-28T00:53:25.147Z,455
2019-04-28T00:55:27.457Z,456
2019-04-28T00:57:29.647Z,456
2019-04-28T00:59:32.245Z,456
2019-04-28T01:01:34.201Z,455
2019-04-28T01:03:36.485Z,456
2019-04-28T01:05:38.695Z,455
2019-04-28T01:07:41.008Z,456
2019-04-28T01:09:43.197Z,456
2019-04-28T01:11:45.514Z,456
2019-04-28T01:13:47.714Z,456
2019-04-28T01:15:50.011Z,456
2019-04-28T01:17:52.283Z,455
2019-04-28T01:19:54.508Z,456
2019-04-28T01:23:59.032Z,456
2019-04-28T01:26:01.322Z,456
2019-04-28T01:28:04.038Z,456
2019-04-28T01:30:05.836Z,456
2019-04-28T01:32:08.139Z,456
2019-04-28T01:34:10.390Z,456
2019-04-28T01:36:12.722Z,456
2019-04-28T01:38:14.894Z,456
2019-04-28T01:40:17.169Z,456
2019-04-28T01:42:19.549Z,456
2019-04-28T01:44:21.688Z,456
2019-04-28T01:46:23.958Z,456
2019-04-28T01:48:26.402Z,456
2019-04-28T01:50:28.595Z,456
2019-04-28T01:52:31.002Z,456
2019-04-28T01:54:33.117Z,456
2019-04-28T01:56:35.358Z,456
2019-04-28T01:58:37.608Z,456
2019-04-28T02:00:40.162Z,456
2019-04-28T02:02:42.115Z,456
2019-04-28T02:04:47.603Z,456
2019-04-28T02:06:46.671Z,456
2019-04-28T02:08:48.933Z,456
2019-04-28T02:10:51.257Z,456
2019-04-28T02:12:53.462Z,456
2019-04-28T02:14:55.692Z,456
2019-04-28T02:16:57.980Z,456
2019-04-28T02:19:00.253Z,456
2019-04-28T02:21:02.528Z,456
2019-04-28T02:23:04.771Z,456
2019-04-28T02:25:07.050Z,456
2019-04-28T02:27:09.314Z,456
2019-04-28T02:29:11.596Z,456
2019-04-28T02:31:13.856Z,456
2019-04-28T02:33:16.233Z,456
2019-04-28T02:35:18.404Z,456
2019-04-28T02:37:20.789Z,456
2019-04-28T02:39:22.953Z,456
2019-04-28T02:41:25.217Z,456
2019-04-28T02:43:27.492Z,456
2019-04-28T02:47:32.049Z,456
2019-04-28T02:49:34.323Z,456
2019-04-28T02:51:36.604Z,456
2019-04-28T02:53:38.824Z,456
2019-04-28T02:55:41.252Z,456
2019-04-28T02:57:43.377Z,456
2019-04-28T02:59:45.620Z,456
2019-04-28T03:01:47.954Z,456
2019-04-28T03:03:50.215Z,456
2019-04-28T03:05:52.504Z,456
2019-04-28T03:07:54.896Z,456
2019-04-28T03:09:57.004Z,456
2019-04-28T03:11:59.228Z,456
2019-04-28T03:14:01.499Z,456
2019-04-28T03:16:03.771Z,456
2019-04-28T03:18:06.045Z,456
2019-04-28T03:22:10.607Z,456
2019-04-28T03:24:12.858Z,456
2019-04-28T03:26:15.171Z,456
2019-04-28T03:28:17.384Z,456
2019-04-28T03:30:19.892Z,456
2019-04-28T03:32:22.042Z,456
2019-04-28T03:34:24.337Z,456
2019-04-28T03:36:26.727Z,456
2019-04-28T03:38:28.683Z,456
2019-04-28T03:40:30.987Z,456
2019-04-28T03:42:33.275Z,456
2019-04-28T03:44:35.612Z,456
2019-04-28T03:46:37.907Z,456
2019-04-28T03:48:40.052Z,456
2019-04-28T03:50:42.296Z,456
2019-04-28T03:52:44.530Z,456
2019-04-28T03:54:46.791Z,456
2019-04-28T03:56:49.074Z,456
2019-04-28T03:58:51.385Z,456
2019-04-28T04:00:53.648Z,456
2019-04-28T04:02:55.889Z,455
2019-04-28T04:07:00.453Z,456
2019-04-28T04:09:02.645Z,456
2019-04-28T04:11:04.951Z,456
2019-04-28T04:13:07.150Z,456
2019-04-28T04:15:09.525Z,456
2019-04-28T04:19:13.951Z,456
2019-04-28T04:21:16.224Z,456
2019-04-28T04:23:18.487Z,456
2019-04-28T04:25:20.750Z,456
2019-04-28T04:27:23.098Z,456
2019-04-28T04:29:25.303Z,456
2019-04-28T04:31:27.575Z,456
2019-04-28T04:33:29.851Z,455
2019-04-28T04:35:32.133Z,455
2019-04-28T04:37:34.354Z,455
2019-04-28T04:39:36.630Z,455
2019-04-28T04:41:38.902Z,455
2019-04-28T04:43:41.213Z,455
2019-04-28T04:45:43.434Z,455
2019-04-28T04:47:49.543Z,455
2019-04-28T04:49:48.134Z,455
2019-04-28T04:51:50.379Z,455
2019-04-28T04:53:52.521Z,455
2019-04-28T04:55:55.019Z,455
2019-04-28T04:57:57.077Z,455
2019-04-28T04:59:59.305Z,455
2019-04-28T05:02:01.565Z,455
2019-04-28T05:04:03.837Z,455
2019-04-28T05:06:06.110Z,455
2019-04-28T05:08:08.397Z,455
2019-04-28T05:10:10.671Z,455
2019-04-28T05:12:13.011Z,455
2019-04-28T05:14:15.311Z,455
2019-04-28T05:16:17.498Z,455
2019-04-28T05:18:19.767Z,455
2019-04-28T05:20:22.061Z,455
2019-04-28T05:22:24.293Z,455
2019-04-28T05:24:26.629Z,455
2019-04-28T05:26:28.903Z,455
2019-04-28T05:28:31.090Z,455
2019-04-28T05:30:33.355Z,455
2019-04-28T05:32:35.613Z,455
2019-04-28T05:34:39.587Z,455
2019-04-28T05:36:40.182Z,455
2019-04-28T05:38:42.457Z,455
2019-04-28T05:40:44.751Z,455
2019-04-28T05:42:46.938Z,455
2019-04-28T05:44:49.265Z,455
2019-04-28T05:46:54.536Z,455
2019-04-28T05:48:53.718Z,455
2019-04-28T05:50:56.144Z,455
2019-04-28T05:52:58.254Z,455
2019-04-28T05:55:00.558Z,455
2019-04-28T05:57:02.808Z,455
2019-04-28T05:59:05.077Z,455
2019-04-28T06:01:07.320Z,455
2019-04-28T06:03:09.636Z,455
2019-04-28T06:05:11.834Z,455
2019-04-28T06:07:14.111Z,455
2019-04-28T06:09:16.370Z,454
2019-04-28T06:11:18.689Z,454
2019-04-28T06:13:20.908Z,454
2019-04-28T06:15:23.190Z,454
2019-04-28T06:17:25.467Z,453
2019-04-28T06:19:27.941Z,453
2019-04-28T06:21:30.026Z,453
2019-04-28T06:23:32.243Z,453
2019-04-28T06:25:34.531Z,453
2019-04-28T06:27:36.775Z,453
2019-04-28T06:29:39.020Z,452
2019-04-28T06:31:41.296Z,452
2019-04-28T06:33:43.578Z,452
2019-04-28T06:35:45.879Z,452
2019-04-28T06:37:48.165Z,452
2019-04-28T06:39:50.611Z,452
2019-04-28T06:41:52.765Z,452
2019-04-28T06:43:55.028Z,451
2019-04-28T06:45:57.233Z,451
2019-04-28T06:47:59.541Z,451
2019-04-28T06:50:01.814Z,451
2019-04-28T06:52:04.182Z,451
2019-04-28T06:54:06.322Z,451
2019-04-28T06:56:08.703Z,451
2019-04-28T06:58:10.919Z,451
2019-04-28T07:00:13.192Z,451
2019-04-28T07:02:15.503Z,450
2019-04-28T07:04:17.749Z,450
2019-04-28T07:06:19.999Z,450
2019-04-28T07:08:22.479Z,450
2019-04-28T07:10:24.531Z,450
2019-04-28T07:12:26.819Z,450
2019-04-28T07:14:29.102Z,450
2019-04-28T07:16:31.406Z,450
2019-04-28T07:18:33.656Z,450
2019-04-28T07:20:36.066Z,450
2019-04-28T07:22:38.260Z,450
2019-04-28T07:24:40.494Z,450
2019-04-28T07:26:42.804Z,450
2019-04-28T07:28:45.070Z,450
2019-04-28T07:30:47.351Z,450
2019-04-28T07:32:49.681Z,450
2019-04-28T07:34:51.921Z,450
2019-04-28T07:36:54.304Z,450
2019-04-28T07:38:56.471Z,450
2019-04-28T07:40:58.789Z,450
2019-04-28T07:43:01.042Z,450
2019-04-28T07:45:03.392Z,450
2019-04-28T07:47:05.612Z,450
2019-04-28T07:49:07.917Z,450
2019-04-28T07:51:10.222Z,450
2019-04-28T07:53:12.421Z,450
2019-04-28T07:55:14.725Z,450
2019-04-28T07:57:16.962Z,450
2019-04-28T07:59:19.227Z,450
2019-04-28T08:01:21.707Z,450
2019-04-28T08:03:23.759Z,450
2019-04-28T08:05:26.093Z,450
2019-04-28T08:07:28.340Z,450
2019-04-28T08:09:30.579Z,450
2019-04-28T08:11:32.885Z,450
2019-04-28T08:13:35.185Z,450
2019-04-28T08:15:37.411Z,450
2019-04-28T08:17:39.689Z,450
2019-04-28T08:19:42.050Z,450
2019-04-28T08:21:44.211Z,450
2019-04-28T08:23:49.520Z,450
2019-04-28T08:25:48.726Z,450
2019-04-28T08:27:50.953Z,450
2019-04-28T08:29:53.192Z,450
2019-04-28T08:31:55.482Z,450
2019-04-28T08:33:57.799Z,450
2019-04-28T08:36:00.052Z,449
2019-04-28T08:38:02.255Z,450
2019-04-28T08:40:04.386Z,450
2019-04-28T08:42:06.625Z,450
2019-04-28T08:44:09.916Z,450
2019-04-28T08:46:11.113Z,450
2019-04-28T08:48:13.441Z,450
2019-04-28T08:50:15.816Z,450
2019-04-28T08:52:17.792Z,449
2019-04-28T08:54:20.123Z,450
2019-04-28T08:56:22.435Z,449
2019-04-28T08:58:24.524Z,449
2019-04-28T09:00:26.850Z,449
2019-04-28T09:02:29.015Z,449
2019-04-28T09:04:31.358Z,449
2019-04-28T09:06:33.524Z,449
2019-04-28T09:08:35.662Z,449
2019-04-28T09:10:38.051Z,449
2019-04-28T09:12:40.134Z,449
2019-04-28T09:14:42.359Z,449
2019-04-28T09:16:44.601Z,449
2019-04-28T09:18:46.903Z,449
2019-04-28T09:20:49.168Z,449
2019-04-28T09:22:51.421Z,449
2019-04-28T09:24:53.758Z,449
2019-04-28T09:26:55.765Z,449
2019-04-28T09:28:57.969Z,449
2019-04-28T09:31:00.171Z,449
2019-04-28T09:33:02.594Z,449
2019-04-28T09:35:04.638Z,449
2019-04-28T09:37:06.915Z,449
2019-04-28T09:39:09.069Z,449
2019-04-28T09:41:11.275Z,449
2019-04-28T09:43:13.550Z,449
2019-04-28T09:45:15.723Z,449
2019-04-28T09:47:18.084Z,449
2019-04-28T09:49:20.351Z,449
2019-04-28T09:51:22.381Z,449
2019-04-28T09:53:24.650Z,449
2019-04-28T09:55:26.850Z,449
2019-04-28T09:57:34.648Z,449
2019-04-28T09:59:31.307Z,449
2019-04-28T10:01:33.566Z,449
2019-04-28T10:03:35.856Z,449
2019-04-28T10:05:38.053Z,449
2019-04-28T10:07:40.198Z,449
2019-04-28T10:09:42.521Z,449
2019-04-28T10:11:44.666Z,449
2019-04-28T10:13:46.903Z,449
2019-04-28T10:15:49.138Z,449
2019-04-28T10:19:53.626Z,449
2019-04-28T10:21:56.118Z,449
2019-04-28T10:23:58.132Z,449
2019-04-28T10:26:00.484Z,449
2019-04-28T10:28:02.470Z,449
2019-04-28T10:30:04.737Z,449
2019-04-28T10:32:06.931Z,449
2019-04-28T10:34:09.128Z,449
2019-04-28T10:36:12.944Z,449
2019-04-28T10:38:13.567Z,449
2019-04-28T10:40:15.894Z,449
2019-04-28T10:42:18.048Z,449
2019-04-28T10:44:20.330Z,449
2019-04-28T10:46:22.484Z,449
2019-04-28T10:48:24.713Z,449
2019-04-28T10:50:27.763Z,449
2019-04-28T10:52:29.116Z,449
2019-04-28T10:54:31.284Z,449
2019-04-28T10:56:33.529Z,449
2019-04-28T10:58:35.715Z,449
2019-04-28T11:00:38.007Z,449
2019-04-28T11:02:40.195Z,449
2019-04-28T11:04:42.414Z,449
2019-04-28T11:06:44.561Z,449
2019-04-28T11:08:46.789Z,449
2019-04-28T11:10:48.981Z,449
2019-04-28T11:12:51.375Z,449
2019-04-28T11:14:53.455Z,449
2019-04-28T11:16:55.606Z,449
2019-04-28T11:18:57.813Z,449
2019-04-28T11:21:00.044Z,449
2019-04-28T11:23:02.299Z,449
2019-04-28T11:25:04.414Z,449
2019-04-28T11:27:06.642Z,449
2019-04-28T11:29:08.814Z,449
2019-04-28T11:31:11.389Z,449
2019-04-28T11:33:13.313Z,449
2019-04-28T11:35:15.468Z,449
2019-04-28T11:37:17.560Z,449
2019-04-28T11:39:19.735Z,449
2019-04-28T11:41:21.923Z,449
2019-04-28T11:43:24.199Z,449
2019-04-28T11:45:26.304Z,449
2019-04-28T11:47:28.492Z,449
2019-04-28T11:49:30.707Z,449
2019-04-28T11:51:32.866Z,449
2019-04-28T11:53:35.065Z,449
2019-04-28T11:55:37.411Z,449
2019-04-28T11:57:40.219Z,449
2019-04-28T11:59:41.583Z,449
2019-04-28T12:03:45.931Z,449
2019-04-28T12:05:48.163Z,449
2019-04-28T12:07:50.514Z,449
2019-04-28T12:09:52.576Z,449
2019-04-28T12:11:55.222Z,449
2019-04-28T12:13:56.898Z,449
2019-04-28T12:15:59.076Z,449
2019-04-28T12:18:01.265Z,449
2019-04-28T12:20:03.438Z,449
2019-04-28T12:22:05.592Z,449
2019-04-28T12:24:07.793Z,449
2019-04-28T12:26:10.171Z,449
2019-04-28T12:28:12.175Z,449
2019-04-28T12:30:14.380Z,449
2019-04-28T12:32:16.561Z,449
2019-04-28T12:34:18.793Z,449
2019-04-28T12:36:20.937Z,449
2019-04-28T12:38:23.164Z,449
2019-04-28T12:40:25.301Z,449
2019-04-28T12:42:27.505Z,449
2019-04-28T12:44:29.687Z,449
2019-04-28T12:46:31.990Z,449
2019-04-28T12:48:34.077Z,449
2019-04-28T12:50:36.382Z,449
2019-04-28T12:52:38.452Z,449
2019-04-28T12:54:40.649Z,449
2019-04-28T12:56:42.833Z,449
2019-04-28T12:58:45.039Z,449
2019-04-28T13:00:47.232Z,449
2019-04-28T13:02:49.430Z,449
2019-04-28T13:04:51.637Z,449
2019-04-28T13:06:53.781Z,449
2019-04-28T13:08:55.979Z,449
2019-04-28T13:10:58.143Z,449
2019-04-28T13:13:00.339Z,449
2019-04-28T13:15:02.520Z,449
2019-04-28T13:17:04.726Z,449
2019-04-28T13:19:06.948Z,449
2019-04-28T13:21:09.088Z,449
2019-04-28T13:23:11.297Z,449
2019-04-28T13:25:17.651Z,449
2019-04-28T13:27:15.651Z,449
2019-04-28T13:29:17.908Z,449
2019-04-28T13:31:20.214Z,449
2019-04-28T13:33:22.314Z,449
2019-04-28T13:35:24.526Z,449
2019-04-28T13:37:26.672Z,449
2019-04-28T13:39:28.848Z,449
2019-04-28T13:41:31.020Z,449
2019-04-28T13:43:33.213Z,449
2019-04-28T13:45:35.458Z,449
2019-04-28T13:47:37.625Z,449
2019-04-28T13:51:42.024Z,449
2019-04-28T13:53:44.211Z,449
2019-04-28T13:55:46.859Z,449
2019-04-28T13:57:50.071Z,449
2019-04-28T13:59:50.847Z,449
2019-04-28T14:01:53.017Z,449
2019-04-28T14:03:55.238Z,449
2019-04-28T14:05:57.455Z,449
2019-04-28T14:08:00.030Z,449
2019-04-28T14:10:01.943Z,449
2019-04-28T14:12:04.106Z,449
2019-04-28T14:14:06.390Z,449
2019-04-28T14:16:08.452Z,449
2019-04-28T14:18:10.673Z,449
2019-04-28T14:20:12.849Z,449
2019-04-28T14:22:15.140Z,449
2019-04-28T14:24:19.957Z,449
2019-04-28T14:26:19.504Z,449
2019-04-28T14:28:21.657Z,449
2019-04-28T14:30:23.854Z,449
2019-04-28T14:32:26.120Z,449
2019-04-28T14:34:28.224Z,449
2019-04-28T14:36:30.411Z,449
2019-04-28T14:38:32.611Z,449
2019-04-28T14:40:34.806Z,449
2019-04-28T14:42:36.994Z,449
2019-04-28T14:44:39.217Z,449
2019-04-28T14:46:41.404Z,449
2019-04-28T14:48:43.761Z,449
2019-04-28T14:50:45.898Z,449
2019-04-28T14:52:48.025Z,449
2019-04-28T14:54:50.256Z,449
2019-04-28T14:56:53.461Z,449
2019-04-28T14:58:54.579Z,449
2019-04-28T15:00:56.934Z,449
2019-04-28T15:02:59.026Z,449
2019-04-28T15:05:01.154Z,449
2019-04-28T15:07:03.358Z,449
2019-04-28T15:09:05.486Z,449
2019-04-28T15:11:08.418Z,449
2019-04-28T15:13:10.032Z,449
2019-04-28T15:15:12.217Z,449
2019-04-28T15:17:14.276Z,449
2019-04-28T15:19:16.558Z,449
2019-04-28T15:21:18.790Z,449
2019-04-28T15:23:20.815Z,449
2019-04-28T15:25:23.397Z,449
2019-04-28T15:27:25.180Z,449
2019-04-28T15:29:27.386Z,449
2019-04-28T15:31:29.720Z,449
2019-04-28T15:33:31.799Z,449
2019-04-28T15:35:33.978Z,449
2019-04-28T15:39:38.349Z,449
2019-04-28T15:41:40.523Z,449
2019-04-28T15:43:42.802Z,449
2019-04-28T15:45:44.867Z,449
2019-04-28T15:47:47.132Z,449
2019-04-28T15:49:49.322Z,449
2019-04-28T15:51:51.541Z,449
2019-04-28T15:53:53.697Z,449
2019-04-28T15:57:58.073Z,449
2019-04-28T16:00:00.128Z,449
2019-04-28T16:02:02.319Z,449
2019-04-28T16:04:04.551Z,449
2019-04-28T16:06:07.077Z,449
2019-04-28T16:08:08.889Z,449
2019-04-28T16:10:11.112Z,449
2019-04-28T16:12:13.256Z,449
2019-04-28T16:14:15.579Z,449
2019-04-28T16:16:17.719Z,449
2019-04-28T16:18:19.798Z,449
2019-04-28T16:20:22.024Z,449
2019-04-28T16:22:24.153Z,449
2019-04-28T16:24:26.386Z,449
2019-04-28T16:26:28.535Z,449
2019-04-28T16:28:30.724Z,449
2019-04-28T16:30:32.907Z,449
2019-04-28T16:32:35.247Z,449
2019-04-28T16:34:37.340Z,449
2019-04-28T16:36:39.538Z,449
2019-04-28T16:38:41.632Z,449
2019-04-28T16:40:43.819Z,449
2019-04-28T16:42:45.993Z,449
2019-04-28T16:44:48.168Z,449
2019-04-28T16:46:50.519Z,449
2019-04-28T16:48:52.575Z,449
2019-04-28T16:50:54.775Z,449
2019-04-28T16:52:58.646Z,449
2019-04-28T16:54:59.115Z,449
2019-04-28T16:57:01.330Z,449
2019-04-28T16:59:03.552Z,449
2019-04-28T17:01:05.663Z,449
2019-04-28T17:03:07.885Z,449
2019-04-28T17:05:09.985Z,449
2019-04-28T17:07:12.139Z,449
2019-04-28T17:09:14.297Z,449
2019-04-28T17:11:16.492Z,449
2019-04-28T17:13:18.712Z,449
2019-04-28T17:15:20.872Z,449
2019-04-28T17:17:23.108Z,449
2019-04-28T17:21:27.429Z,449
2019-04-28T17:23:29.624Z,449
2019-04-28T17:25:31.838Z,449
2019-04-28T17:27:34.041Z,449
2019-04-28T17:29:36.341Z,449
2019-04-28T17:31:38.362Z,449
2019-04-28T17:33:40.617Z,449
2019-04-28T17:35:42.862Z,449
2019-04-28T17:37:44.919Z,450
2019-04-28T17:39:47.115Z,449
2019-04-28T17:41:49.358Z,450
2019-04-28T17:43:51.562Z,450
2019-04-28T17:45:53.699Z,450
2019-04-28T17:47:55.987Z,450
2019-04-28T17:49:58.079Z,449
2019-04-28T17:52:00.244Z,449
2019-04-28T17:54:02.449Z,450
2019-04-28T17:56:07.404Z,450
2019-04-28T17:58:06.867Z,450
2019-04-28T18:00:09.044Z,450
2019-04-28T18:02:11.221Z,449
2019-04-28T18:04:13.440Z,450
2019-04-28T18:06:15.689Z,450
2019-04-28T18:08:17.950Z,450
2019-04-28T18:12:22.359Z,450
2019-04-28T18:14:24.479Z,450
2019-04-28T18:16:26.671Z,450
2019-04-28T18:18:28.914Z,450
2019-04-28T18:20:31.157Z,450
2019-04-28T18:22:33.327Z,449
2019-04-28T18:24:35.764Z,449
2019-04-28T18:26:37.769Z,449
2019-04-28T18:28:39.998Z,449
2019-04-28T18:30:42.185Z,449
2019-04-28T18:32:44.620Z,449
2019-04-28T18:34:46.579Z,448
2019-04-28T18:36:48.843Z,448
2019-04-28T18:38:51.047Z,447
2019-04-28T18:40:53.937Z,446
2019-04-28T18:42:55.570Z,444
2019-04-28T18:44:57.744Z,444
2019-04-28T18:49:06.020Z,442
2019-04-28T18:51:04.476Z,442
2019-04-28T18:53:06.736Z,441
2019-04-28T18:55:08.985Z,441
2019-04-28T18:57:11.218Z,441
2019-04-28T18:59:13.450Z,440
2019-04-28T19:01:15.724Z,440
2019-04-28T19:03:18.018Z,440
2019-04-28T19:05:20.216Z,440
2019-04-28T19:07:22.511Z,439
2019-04-28T19:09:24.691Z,439
2019-04-28T19:11:26.953Z,439
2019-04-28T19:13:29.187Z,439
2019-04-28T19:15:31.517Z,438
2019-04-28T19:19:38.934Z,438
2019-04-28T19:21:38.340Z,437
2019-04-28T19:23:40.427Z,437
2019-04-28T19:25:42.885Z,436
2019-04-28T19:27:44.930Z,436
2019-04-28T19:29:48.297Z,436
2019-04-28T19:31:49.408Z,435
2019-04-28T19:33:51.695Z,435
2019-04-28T19:35:53.922Z,435
2019-04-28T19:37:56.170Z,435
2019-04-28T19:39:58.433Z,435
2019-04-28T19:42:00.676Z,434
2019-04-28T19:44:02.969Z,434
2019-04-28T19:46:05.279Z,434
2019-04-28T19:48:07.574Z,433
2019-04-28T19:50:09.731Z,433
2019-04-28T19:52:12.002Z,433
2019-04-28T19:54:14.240Z,433
2019-04-28T19:56:16.560Z,432
2019-04-28T19:58:18.724Z,432
2019-04-28T20:00:20.974Z,432
2019-04-28T20:02:23.247Z,432
2019-04-28T20:04:25.489Z,432
2019-04-28T20:06:27.931Z,431
2019-04-28T20:08:30.003Z,431
2019-04-28T20:10:32.496Z,431
2019-04-28T20:12:34.762Z,431
2019-04-28T20:14:37.161Z,431
2019-04-28T20:16:39.249Z,431
2019-04-28T20:18:41.585Z,430
2019-04-28T20:20:43.797Z,430
2019-04-28T20:22:46.160Z,430
2019-04-28T20:24:48.930Z,430
2019-04-28T20:26:50.613Z,430
2019-04-28T20:28:53.047Z,430
2019-04-28T20:30:55.155Z,430
2019-04-28T20:32:57.479Z,430
2019-04-28T20:34:59.689Z,430
2019-04-28T20:37:01.949Z,430
2019-04-28T20:39:04.224Z,430
2019-04-28T20:41:06.530Z,430
2019-04-28T20:43:08.846Z,430
2019-04-28T20:45:11.066Z,430
2019-04-28T20:47:13.315Z,430
2019-04-28T20:49:15.592Z,430
2019-04-28T20:51:17.892Z,430
2019-04-28T20:53:20.214Z,430
2019-04-28T20:55:22.526Z,430
2019-04-28T20:57:24.886Z,430
2019-04-28T20:59:26.978Z,430
2019-04-28T21:01:29.305Z,430
2019-04-28T21:03:31.499Z,430
2019-04-28T21:05:33.770Z,430
2019-04-28T21:07:36.048Z,430
2019-04-28T21:09:38.314Z,430
2019-04-28T21:11:40.675Z,430
2019-04-28T21:13:42.990Z,430
2019-04-28T21:15:45.137Z,430
2019-04-28T21:17:47.389Z,430
2019-04-28T21:19:49.911Z,430
2019-04-28T21:21:51.917Z,430
2019-04-28T21:23:54.228Z,430
2019-04-28T21:25:58.857Z,430
2019-04-28T21:27:58.813Z,430
2019-04-28T21:30:01.065Z,430
2019-04-28T21:32:03.486Z,430
2019-04-28T21:34:05.529Z,430
2019-04-28T21:36:07.913Z,430
2019-04-28T21:38:10.087Z,430
2019-04-28T21:40:12.356Z,430
2019-04-28T21:42:14.678Z,430
2019-04-28T21:44:17.028Z,430
2019-04-28T21:46:19.186Z,430
2019-04-28T21:48:21.501Z,430
2019-04-28T21:50:23.726Z,430
2019-04-28T21:52:26.075Z,430
2019-04-28T21:54:28.276Z,430
2019-04-28T21:56:30.543Z,430
2019-04-28T21:58:35.328Z,430
2019-04-28T22:00:35.092Z,430
2019-04-28T22:02:37.374Z,431
2019-04-28T22:04:39.640Z,430
2019-04-28T22:06:41.971Z,430
2019-04-28T22:08:44.209Z,431
2019-04-28T22:10:46.476Z,431
2019-04-28T22:12:48.808Z,431
2019-04-28T22:14:51.012Z,431
2019-04-28T22:16:56.935Z,431
2019-04-28T22:18:55.538Z,431
2019-04-28T22:20:57.846Z,431
2019-04-28T22:23:00.170Z,431
2019-04-28T22:25:02.597Z,431
2019-04-28T22:27:04.667Z,431
2019-04-28T22:29:06.955Z,431
2019-04-28T22:31:09.225Z,431
2019-04-28T22:33:11.487Z,431
2019-04-28T22:35:13.765Z,431
2019-04-28T22:37:16.039Z,431
2019-04-28T22:39:18.648Z,431
2019-04-28T22:41:20.545Z,431
2019-04-28T22:43:22.809Z,431
2019-04-28T22:45:25.155Z,431
2019-04-28T22:47:27.463Z,431
2019-04-28T22:49:29.645Z,431
2019-04-28T22:51:31.913Z,431
2019-04-28T22:53:34.205Z,431
2019-04-28T22:55:37.205Z,431
2019-04-28T22:57:38.769Z,431
2019-04-28T22:59:41.046Z,431
2019-04-28T23:01:43.303Z,431
2019-04-28T23:03:45.616Z,431
2019-04-28T23:05:47.878Z,431
2019-04-28T23:07:50.211Z,431
2019-04-28T23:09:52.476Z,431
2019-04-28T23:11:54.755Z,431
2019-04-28T23:13:56.987Z,431
2019-04-28T23:15:59.254Z,431
2019-04-28T23:18:03.993Z,431
2019-04-28T23:20:03.805Z,431
2019-04-28T23:22:06.186Z,432
2019-04-28T23:24:08.387Z,432
2019-04-28T23:26:10.736Z,432
2019-04-28T23:28:13.136Z,432
2019-04-28T23:30:15.279Z,432
2019-04-28T23:32:17.589Z,432
2019-04-28T23:34:19.818Z,432
2019-04-28T23:36:22.130Z,432
2019-04-28T23:38:24.395Z,432
2019-04-28T23:40:26.743Z,432
2019-04-28T23:42:28.971Z,432
2019-04-28T23:44:31.332Z,432
2019-04-28T23:46:33.523Z,432
2019-04-28T23:48:35.793Z,432
2019-04-28T23:50:38.171Z,432
2019-04-28T23:52:40.394Z,432
2019-04-28T23:54:42.669Z,433
2019-04-28T23:56:44.917Z,433
2019-04-28T23:58:47.205Z,433
